METAR Data
IDs: Format: Raw Decoded Include TAF

Data at: 0301 UTC 25 Feb 2021

KFFX 250255Z AUTO 35006KT 10SM CLR M02/M04 A3015 RMK AO2 T10161040